DLH4LC EDDF-EDDM
Flight info
| Callsign | DLH4LC |
|---|---|
| Flight time | 0h 35m |
| Altitude | 23000 |
| Route | CINDY8S/18 CINDY Z74 HAREM T104 ROKIL ROKIL1B |
| Aircraft | A320/M-SDE3FGHIRWY/LB1 |
Departure
| Time | 2026-05-07 19:07 |
|---|---|
| Airport | Frankfurt Main Airport (EDDF) |
Arrival
| Time | 2026-05-07 19:42 |
|---|---|
| Airport | Munich Airport (EDDM) |
| Time | Latitude | Longitude | Altitude | Speed | Heading |
|---|---|---|---|---|---|
| 2026-05-07 18:27 | 50.04564 | 8.56310 | 356 ft | 0 kts | 40° |
| 2026-05-07 18:55 | 50.04559 | 8.56303 | 356 ft | 4 kts | 35° |
| 2026-05-07 18:55 | 50.04536 | 8.56291 | 359 ft | 4 kts | 350° |
| 2026-05-07 18:55 | 50.04513 | 8.56302 | 358 ft | 4 kts | 323° |
| 2026-05-07 18:55 | 50.04504 | 8.56329 | 357 ft | 4 kts | 255° |
| 2026-05-07 18:56 | 50.04512 | 8.56367 | 360 ft | 4 kts | 249° |
| 2026-05-07 18:56 | 50.04515 | 8.56380 | 340 ft | 0 kts | 249° |
| 2026-05-07 18:58 | 50.04504 | 8.56333 | 357 ft | 11 kts | 249° |
| 2026-05-07 18:58 | 50.04478 | 8.56227 | 362 ft | 10 kts | 249° |
| 2026-05-07 18:58 | 50.04456 | 8.56133 | 364 ft | 9 kts | 250° |
| 2026-05-07 18:59 | 50.04427 | 8.56039 | 358 ft | 13 kts | 224° |
| 2026-05-07 18:59 | 50.04352 | 8.56051 | 358 ft | 7 kts | 160° |
| 2026-05-07 18:59 | 50.04344 | 8.56055 | 362 ft | 0 kts | 159° |
| 2026-05-07 19:00 | 50.04324 | 8.56066 | 355 ft | 12 kts | 162° |
| 2026-05-07 19:01 | 50.04250 | 8.55986 | 362 ft | 15 kts | 249° |
| 2026-05-07 19:01 | 50.04205 | 8.55796 | 360 ft | 24 kts | 250° |
| 2026-05-07 19:01 | 50.04139 | 8.55517 | 359 ft | 26 kts | 248° |
| 2026-05-07 19:01 | 50.04083 | 8.55289 | 353 ft | 23 kts | 249° |
| 2026-05-07 19:02 | 50.04018 | 8.55020 | 358 ft | 30 kts | 249° |
| 2026-05-07 19:02 | 50.03944 | 8.54708 | 353 ft | 31 kts | 250° |
| 2026-05-07 19:02 | 50.03867 | 8.54393 | 352 ft | 29 kts | 244° |
| 2026-05-07 19:02 | 50.03773 | 8.54113 | 352 ft | 29 kts | 250° |
| 2026-05-07 19:03 | 50.03709 | 8.53845 | 349 ft | 27 kts | 249° |
| 2026-05-07 19:03 | 50.03648 | 8.53599 | 350 ft | 24 kts | 246° |
| 2026-05-07 19:03 | 50.03588 | 8.53351 | 338 ft | 25 kts | 249° |
| 2026-05-07 19:03 | 50.03530 | 8.53112 | 337 ft | 23 kts | 250° |
| 2026-05-07 19:04 | 50.03474 | 8.52884 | 334 ft | 23 kts | 247° |
| 2026-05-07 19:04 | 50.03432 | 8.52727 | 331 ft | 5 kts | 249° |
| 2026-05-07 19:04 | 50.03432 | 8.52726 | 331 ft | 0 kts | 249° |
| 2026-05-07 19:05 | 50.03426 | 8.52701 | 333 ft | 10 kts | 249° |
| 2026-05-07 19:05 | 50.03372 | 8.52594 | 334 ft | 14 kts | 188° |
| 2026-05-07 19:05 | 50.03365 | 8.52594 | 335 ft | 0 kts | 181° |
| 2026-05-07 19:06 | 50.03362 | 8.52594 | 334 ft | 3 kts | 181° |
| 2026-05-07 19:06 | 50.02733 | 8.52599 | 335 ft | 105 kts | 180° |
| 2026-05-07 19:06 | 50.01809 | 8.52609 | 331 ft | 158 kts | 179° |
| 2026-05-07 19:07 | 50.00896 | 8.52611 | 493 ft | 177 kts | 178° |
| 2026-05-07 19:07 | 49.99663 | 8.52625 | 1192 ft | 177 kts | 178° |
| 2026-05-07 19:07 | 49.98418 | 8.52636 | 1836 ft | 184 kts | 177° |
| 2026-05-07 19:07 | 49.97122 | 8.53083 | 2121 ft | 205 kts | 152° |
| 2026-05-07 19:08 | 49.95985 | 8.54548 | 2466 ft | 221 kts | 123° |
| 2026-05-07 19:08 | 49.95201 | 8.56662 | 3112 ft | 229 kts | 117° |
| 2026-05-07 19:08 | 49.94433 | 8.58852 | 3802 ft | 235 kts | 113° |
| 2026-05-07 19:08 | 49.94011 | 8.61353 | 3980 ft | 240 kts | 92° |
| 2026-05-07 19:09 | 49.93919 | 8.63969 | 4012 ft | 250 kts | 91° |
| 2026-05-07 19:09 | 49.93757 | 8.66740 | 4009 ft | 263 kts | 101° |
| 2026-05-07 19:09 | 49.93087 | 8.69393 | 4009 ft | 267 kts | 121° |
| 2026-05-07 19:09 | 49.91885 | 8.71580 | 3999 ft | 268 kts | 140° |
| 2026-05-07 19:10 | 49.90367 | 8.73272 | 3998 ft | 269 kts | 144° |
| 2026-05-07 19:10 | 49.88903 | 8.75073 | 3999 ft | 268 kts | 134° |
| 2026-05-07 19:10 | 49.87757 | 8.77341 | 4002 ft | 267 kts | 119° |
| 2026-05-07 19:10 | 49.86842 | 8.79898 | 4432 ft | 275 kts | 118° |
| 2026-05-07 19:11 | 49.85917 | 8.82480 | 5490 ft | 274 kts | 118° |
| 2026-05-07 19:11 | 49.84981 | 8.85071 | 6421 ft | 278 kts | 119° |
| 2026-05-07 19:11 | 49.84029 | 8.87695 | 7265 ft | 282 kts | 120° |
| 2026-05-07 19:11 | 49.83059 | 8.90364 | 8124 ft | 286 kts | 120° |
| 2026-05-07 19:12 | 49.82077 | 8.93062 | 8976 ft | 290 kts | 120° |
| 2026-05-07 19:12 | 49.81081 | 8.95801 | 9836 ft | 294 kts | 120° |
| 2026-05-07 19:12 | 49.80056 | 8.98610 | 10448 ft | 306 kts | 120° |
| 2026-05-07 19:12 | 49.78972 | 9.01569 | 10700 ft | 330 kts | 120° |
| 2026-05-07 19:13 | 49.77799 | 9.04769 | 10908 ft | 353 kts | 120° |
| 2026-05-07 19:13 | 49.76592 | 9.08212 | 11040 ft | 374 kts | 115° |
| 2026-05-07 19:13 | 49.75711 | 9.12042 | 11072 ft | 381 kts | 104° |
| 2026-05-07 19:13 | 49.75001 | 9.16004 | 11252 ft | 387 kts | 111° |
| 2026-05-07 19:14 | 49.73827 | 9.19736 | 12028 ft | 388 kts | 122° |
| 2026-05-07 19:14 | 49.72231 | 9.23104 | 12764 ft | 390 kts | 131° |
| 2026-05-07 19:14 | 49.70432 | 9.26268 | 13453 ft | 393 kts | 132° |
| 2026-05-07 19:14 | 49.68621 | 9.29453 | 14093 ft | 397 kts | 132° |
| 2026-05-07 19:15 | 49.66790 | 9.32679 | 14671 ft | 401 kts | 132° |
| 2026-05-07 19:15 | 49.64926 | 9.35971 | 15254 ft | 404 kts | 132° |
| 2026-05-07 19:15 | 49.63071 | 9.39251 | 15803 ft | 408 kts | 132° |
| 2026-05-07 19:15 | 49.61199 | 9.42557 | 16355 ft | 411 kts | 132° |
| 2026-05-07 19:16 | 49.59308 | 9.45895 | 16897 ft | 415 kts | 132° |
| 2026-05-07 19:16 | 49.57398 | 9.49254 | 17412 ft | 419 kts | 132° |
| 2026-05-07 19:16 | 49.55468 | 9.52637 | 17944 ft | 422 kts | 133° |
| 2026-05-07 19:16 | 49.53518 | 9.56042 | 18449 ft | 426 kts | 133° |
| 2026-05-07 19:17 | 49.51552 | 9.59475 | 18894 ft | 429 kts | 133° |
| 2026-05-07 19:17 | 49.49575 | 9.62927 | 19351 ft | 432 kts | 133° |
| 2026-05-07 19:17 | 49.47585 | 9.66402 | 19812 ft | 434 kts | 133° |
| 2026-05-07 19:17 | 49.45582 | 9.69899 | 20272 ft | 437 kts | 133° |
| 2026-05-07 19:18 | 49.43566 | 9.73415 | 20720 ft | 439 kts | 132° |
| 2026-05-07 19:18 | 49.41540 | 9.76941 | 21155 ft | 442 kts | 133° |
| 2026-05-07 19:18 | 49.39764 | 9.80028 | 21512 ft | 444 kts | 132° |
| 2026-05-07 19:18 | 49.37729 | 9.83559 | 21936 ft | 447 kts | 133° |
| 2026-05-07 19:19 | 49.35657 | 9.87147 | 22332 ft | 450 kts | 133° |
| 2026-05-07 19:19 | 49.33576 | 9.90742 | 22724 ft | 453 kts | 133° |
| 2026-05-07 19:19 | 49.31475 | 9.94361 | 22999 ft | 455 kts | 133° |
| 2026-05-07 19:19 | 49.29357 | 9.98004 | 23062 ft | 463 kts | 133° |
| 2026-05-07 19:20 | 49.27187 | 10.01730 | 23061 ft | 473 kts | 133° |
| 2026-05-07 19:20 | 49.24982 | 10.05509 | 23062 ft | 478 kts | 133° |
| 2026-05-07 19:20 | 49.22760 | 10.09316 | 23063 ft | 479 kts | 133° |
| 2026-05-07 19:20 | 49.20538 | 10.13123 | 23080 ft | 480 kts | 133° |
| 2026-05-07 19:21 | 49.19035 | 10.15695 | 23089 ft | 480 kts | 133° |
| 2026-05-07 19:21 | 49.16808 | 10.19492 | 23090 ft | 480 kts | 133° |
| 2026-05-07 19:21 | 49.14580 | 10.23285 | 23085 ft | 480 kts | 134° |
| 2026-05-07 19:21 | 49.12335 | 10.27064 | 23089 ft | 481 kts | 134° |
| 2026-05-07 19:22 | 49.10052 | 10.30798 | 23103 ft | 481 kts | 135° |
| 2026-05-07 19:22 | 49.07739 | 10.34506 | 22801 ft | 482 kts | 135° |
| 2026-05-07 19:22 | 49.05420 | 10.38182 | 22376 ft | 480 kts | 136° |
| 2026-05-07 19:22 | 49.03110 | 10.41830 | 21976 ft | 478 kts | 136° |
| 2026-05-07 19:23 | 49.00808 | 10.45472 | 21587 ft | 476 kts | 136° |
| 2026-05-07 19:23 | 48.98525 | 10.49098 | 21196 ft | 473 kts | 136° |
| 2026-05-07 19:23 | 48.96258 | 10.52709 | 20810 ft | 470 kts | 135° |
| 2026-05-07 19:23 | 48.94009 | 10.56300 | 20427 ft | 468 kts | 135° |
| 2026-05-07 19:24 | 48.91767 | 10.59882 | 20059 ft | 466 kts | 135° |
| 2026-05-07 19:24 | 48.89533 | 10.63441 | 19684 ft | 464 kts | 135° |
| 2026-05-07 19:24 | 48.87310 | 10.66978 | 19319 ft | 462 kts | 135° |
| 2026-05-07 19:24 | 48.85094 | 10.70498 | 18958 ft | 460 kts | 136° |
| 2026-05-07 19:25 | 48.82884 | 10.73997 | 18596 ft | 458 kts | 136° |
| 2026-05-07 19:25 | 48.80682 | 10.77475 | 18209 ft | 456 kts | 136° |
| 2026-05-07 19:25 | 48.78494 | 10.80921 | 17785 ft | 452 kts | 136° |
| 2026-05-07 19:25 | 48.76318 | 10.84336 | 17379 ft | 448 kts | 136° |
| 2026-05-07 19:26 | 48.74127 | 10.87765 | 17070 ft | 446 kts | 136° |
| 2026-05-07 19:26 | 48.71972 | 10.91127 | 17068 ft | 445 kts | 136° |
| 2026-05-07 19:26 | 48.69815 | 10.94491 | 17069 ft | 445 kts | 136° |
| 2026-05-07 19:26 | 48.67653 | 10.97859 | 17068 ft | 446 kts | 136° |
| 2026-05-07 19:27 | 48.65488 | 11.01226 | 17062 ft | 446 kts | 136° |
| 2026-05-07 19:27 | 48.63324 | 11.04592 | 17060 ft | 444 kts | 136° |
| 2026-05-07 19:27 | 48.61221 | 11.07864 | 16968 ft | 425 kts | 136° |
| 2026-05-07 19:27 | 48.59202 | 11.11007 | 16829 ft | 408 kts | 136° |
| 2026-05-07 19:28 | 48.57126 | 11.13777 | 16705 ft | 388 kts | 147° |
| 2026-05-07 19:28 | 48.54967 | 11.16018 | 16142 ft | 372 kts | 148° |
| 2026-05-07 19:28 | 48.52838 | 11.18184 | 15403 ft | 364 kts | 149° |
| 2026-05-07 19:28 | 48.50807 | 11.20407 | 14652 ft | 360 kts | 141° |
| 2026-05-07 19:29 | 48.48946 | 11.22896 | 13872 ft | 356 kts | 141° |
| 2026-05-07 19:29 | 48.47106 | 11.25372 | 12978 ft | 352 kts | 141° |
| 2026-05-07 19:29 | 48.45295 | 11.27814 | 12223 ft | 346 kts | 140° |
| 2026-05-07 19:29 | 48.43679 | 11.30476 | 11929 ft | 346 kts | 127° |
| 2026-05-07 19:30 | 48.42535 | 11.33668 | 11683 ft | 349 kts | 112° |
| 2026-05-07 19:30 | 48.41956 | 11.37208 | 11430 ft | 349 kts | 97° |
| 2026-05-07 19:30 | 48.41984 | 11.40840 | 11186 ft | 348 kts | 83° |
| 2026-05-07 19:30 | 48.42287 | 11.44455 | 11061 ft | 347 kts | 83° |
| 2026-05-07 19:31 | 48.42580 | 11.48069 | 11080 ft | 348 kts | 83° |
| 2026-05-07 19:31 | 48.42866 | 11.51681 | 11081 ft | 348 kts | 83° |
| 2026-05-07 19:31 | 48.43151 | 11.55300 | 11082 ft | 348 kts | 83° |
| 2026-05-07 19:31 | 48.43434 | 11.58916 | 10918 ft | 348 kts | 83° |
| 2026-05-07 19:32 | 48.43716 | 11.62529 | 10490 ft | 345 kts | 83° |
| 2026-05-07 19:32 | 48.43990 | 11.66056 | 10365 ft | 333 kts | 83° |
| 2026-05-07 19:32 | 48.44253 | 11.69457 | 10242 ft | 322 kts | 83° |
| 2026-05-07 19:32 | 48.44504 | 11.72753 | 10057 ft | 313 kts | 83° |
| 2026-05-07 19:33 | 48.44751 | 11.75982 | 9873 ft | 309 kts | 83° |
| 2026-05-07 19:33 | 48.44998 | 11.79190 | 9709 ft | 307 kts | 83° |
| 2026-05-07 19:33 | 48.45245 | 11.82380 | 9543 ft | 306 kts | 83° |
| 2026-05-07 19:33 | 48.45491 | 11.85555 | 9379 ft | 305 kts | 83° |
| 2026-05-07 19:34 | 48.45738 | 11.88763 | 9213 ft | 304 kts | 83° |
| 2026-05-07 19:34 | 48.45974 | 11.91900 | 8871 ft | 299 kts | 83° |
| 2026-05-07 19:34 | 48.46203 | 11.94998 | 8219 ft | 296 kts | 83° |
| 2026-05-07 19:34 | 48.46429 | 11.98067 | 7582 ft | 293 kts | 83° |
| 2026-05-07 19:35 | 48.46652 | 12.01098 | 6976 ft | 289 kts | 83° |
| 2026-05-07 19:35 | 48.46872 | 12.04099 | 6453 ft | 288 kts | 83° |
| 2026-05-07 19:35 | 48.47094 | 12.07074 | 6098 ft | 284 kts | 83° |
| 2026-05-07 19:35 | 48.47315 | 12.10011 | 5731 ft | 281 kts | 83° |
| 2026-05-07 19:36 | 48.47530 | 12.12928 | 5359 ft | 279 kts | 84° |
| 2026-05-07 19:36 | 48.47387 | 12.15804 | 4985 ft | 275 kts | 109° |
| 2026-05-07 19:36 | 48.46410 | 12.18220 | 4579 ft | 271 kts | 138° |
| 2026-05-07 19:36 | 48.44823 | 12.19626 | 4160 ft | 265 kts | 166° |
| 2026-05-07 19:37 | 48.43016 | 12.20126 | 3986 ft | 264 kts | 175° |
| 2026-05-07 19:37 | 48.41193 | 12.20069 | 3990 ft | 262 kts | 195° |
| 2026-05-07 19:37 | 48.39632 | 12.18867 | 3994 ft | 244 kts | 222° |
| 2026-05-07 19:37 | 48.38676 | 12.16923 | 3994 ft | 225 kts | 255° |
| 2026-05-07 19:38 | 48.38730 | 12.14654 | 4004 ft | 220 kts | 288° |
| 2026-05-07 19:38 | 48.39075 | 12.12416 | 4002 ft | 221 kts | 267° |
| 2026-05-07 19:38 | 48.38817 | 12.10135 | 4005 ft | 222 kts | 261° |
| 2026-05-07 19:38 | 48.38610 | 12.07827 | 4006 ft | 222 kts | 264° |
| 2026-05-07 19:39 | 48.38441 | 12.05523 | 4006 ft | 222 kts | 264° |
| 2026-05-07 19:39 | 48.38271 | 12.03202 | 4006 ft | 223 kts | 264° |
| 2026-05-07 19:39 | 48.38099 | 12.00880 | 3897 ft | 223 kts | 264° |
| 2026-05-07 19:39 | 48.37927 | 11.98574 | 3641 ft | 222 kts | 264° |
| 2026-05-07 19:40 | 48.37755 | 11.96267 | 3368 ft | 222 kts | 264° |
| 2026-05-07 19:40 | 48.37580 | 11.93937 | 3074 ft | 221 kts | 264° |
| 2026-05-07 19:40 | 48.37408 | 11.91646 | 2766 ft | 216 kts | 264° |
| 2026-05-07 19:40 | 48.37245 | 11.89491 | 2499 ft | 198 kts | 264° |
| 2026-05-07 19:41 | 48.37097 | 11.87544 | 2237 ft | 177 kts | 264° |
| 2026-05-07 19:41 | 48.36966 | 11.85814 | 1987 ft | 158 kts | 264° |
| 2026-05-07 19:41 | 48.36846 | 11.84236 | 1831 ft | 148 kts | 265° |
| 2026-05-07 19:41 | 48.36733 | 11.82721 | 1622 ft | 144 kts | 265° |
| 2026-05-07 19:42 | 48.36620 | 11.81254 | 1493 ft | 131 kts | 264° |
| 2026-05-07 19:42 | 48.36533 | 11.80096 | 1485 ft | 76 kts | 263° |
| 2026-05-07 19:42 | 48.36451 | 11.79714 | 1478 ft | 28 kts | 239° |
| 2026-05-07 19:42 | 48.36352 | 11.79503 | 1477 ft | 22 kts | 233° |
| 2026-05-07 19:43 | 48.36267 | 11.79329 | 1478 ft | 16 kts | 231° |
| 2026-05-07 19:43 | 48.36175 | 11.79302 | 1476 ft | 13 kts | 173° |
| 2026-05-07 19:43 | 48.36091 | 11.79317 | 1485 ft | 11 kts | 173° |
| 2026-05-07 19:43 | 48.36019 | 11.79329 | 1475 ft | 10 kts | 173° |
| 2026-05-07 19:44 | 48.35957 | 11.79340 | 1481 ft | 8 kts | 173° |
| 2026-05-07 19:44 | 48.35913 | 11.79373 | 1482 ft | 7 kts | 130° |
| 2026-05-07 19:44 | 48.35887 | 11.79430 | 1476 ft | 10 kts | 132° |
| 2026-05-07 19:44 | 48.35796 | 11.79463 | 1485 ft | 12 kts | 173° |
| 2026-05-07 19:45 | 48.35720 | 11.79477 | 1481 ft | 11 kts | 173° |
| 2026-05-07 19:45 | 48.35614 | 11.79495 | 1476 ft | 19 kts | 173° |
| 2026-05-07 19:45 | 48.35489 | 11.79517 | 1483 ft | 16 kts | 174° |
| 2026-05-07 19:45 | 48.35390 | 11.79534 | 1480 ft | 16 kts | 174° |
| 2026-05-07 19:46 | 48.35302 | 11.79549 | 1475 ft | 8 kts | 173° |
| 2026-05-07 19:46 | 48.35268 | 11.79588 | 1482 ft | 5 kts | 89° |
| 2026-05-07 19:46 | 48.35274 | 11.79656 | 1476 ft | 8 kts | 83° |
| 2026-05-07 19:46 | 48.35281 | 11.79744 | 1485 ft | 8 kts | 83° |
| 2026-05-07 19:47 | 48.35282 | 11.79766 | 1485 ft | 0 kts | 83° |